Terminal Aerodrome Forecast
Issued by NWS

Home | Current Version | Previous Version | Text Only | Print | Product List | Glossary On
Versions: 1 2 3 4 5 6 7 8 9 10 11 12 13 14 15 16 17 18 19 20 21 22 23 24 25 26 27 28 29 30 31 32 33 34 35
000
FTUS45 KCYS 060929 AAB
TAFAIA
TAF AMD
KAIA 060929Z 0609/0706 01015KT P6SM SCT005 OVC020
      TEMPO 0610/0614 2SM -RA BR OVC005
     FM061500 03011KT P6SM BKN015
     FM061900 03010KT 4SM -SHRA BKN035
     FM070100 06007KT P6SM BKN045=

USA.gov is the U.S. government's official web portal to all federal, state and local government web resources and services.